Baltimore, Maryland
Traffic Map
Current Weather Conditions
Baltimore, Maryland
Broken Clouds
Broken Clouds

Feels Like: 6°
Wind Chill: Ceiling: 25000
Heat Index: Visibility: 10mi
Dew Point: -3° Wind: 9mph
Humidity: 46% Direction: 130° (SE)
Pressure: 30.32in Gusts: 0mph
Raw Report DataKBWI 211554Z 13008KT 10SM FEW160 BKN250 08/M03 A3032 RMK AO2 SLP268 T00831028
Traffic Incident Summary
Active as of:
Severity:
Category:
InformationThere was an issue retrieving the traffic information for this location. Please try a different location or try again shortly.
Advertisements
Track Severe Weather on mobile